createdAt,value
2019-02-25T00:01:10.293Z,63.00
2019-02-25T00:04:14.703Z,63.00
2019-02-25T00:07:19.105Z,63.00
2019-02-25T00:10:23.510Z,63.00
2019-02-25T00:13:27.899Z,63.00
2019-02-25T00:16:32.301Z,63.00
2019-02-25T00:19:25.637Z,63.00
2019-02-25T00:22:30.048Z,62.00
2019-02-25T00:25:34.454Z,62.00
2019-02-25T00:28:38.832Z,62.00
2019-02-25T00:31:43.237Z,63.00
2019-02-25T00:34:47.619Z,62.00
2019-02-25T00:37:52.026Z,62.00
2019-02-25T00:40:56.430Z,62.00
2019-02-25T00:44:00.824Z,62.00
2019-02-25T00:47:05.239Z,62.00
2019-02-25T00:50:09.624Z,62.00
2019-02-25T00:53:14.032Z,62.00
2019-02-25T00:56:18.435Z,63.00
2019-02-25T00:59:11.747Z,62.00
2019-02-25T01:02:16.158Z,62.00
2019-02-25T01:05:20.542Z,62.00
2019-02-25T01:08:24.946Z,62.00
2019-02-25T01:11:29.404Z,62.00
2019-02-25T01:14:33.736Z,62.00
2019-02-25T01:17:38.139Z,62.00
2019-02-25T01:20:42.530Z,62.00
2019-02-25T01:23:48.901Z,62.00
2019-02-25T01:26:51.347Z,62.00
2019-02-25T01:29:55.731Z,63.00
2019-02-25T01:33:00.139Z,63.00
2019-02-25T01:36:04.520Z,63.00
2019-02-25T01:38:57.855Z,63.00
2019-02-25T01:42:02.259Z,63.00
2019-02-25T01:45:07.652Z,63.00
2019-02-25T01:48:12.051Z,63.00
2019-02-25T01:51:16.445Z,63.00
2019-02-25T01:54:20.847Z,63.00
2019-02-25T01:57:25.249Z,62.00
2019-02-25T02:00:29.630Z,63.00
2019-02-25T02:03:34.039Z,63.00
2019-02-25T02:06:38.424Z,63.00
2019-02-25T02:09:42.830Z,63.00
2019-02-25T02:12:47.235Z,63.00
2019-02-25T02:15:51.615Z,63.00
2019-02-25T02:18:44.947Z,63.00
2019-02-25T02:21:49.326Z,63.00
2019-02-25T02:24:53.731Z,63.00
2019-02-25T02:27:58.133Z,63.00
2019-02-25T02:31:02.512Z,63.00
2019-02-25T02:34:06.916Z,63.00
2019-02-25T02:37:11.318Z,63.00
2019-02-25T02:40:15.750Z,63.00
2019-02-25T02:43:20.125Z,63.00
2019-02-25T02:46:24.515Z,63.00
2019-02-25T02:49:17.843Z,63.00
2019-02-25T02:52:22.226Z,63.00
2019-02-25T02:55:26.637Z,63.00
2019-02-25T02:58:31.037Z,63.00
2019-02-25T03:01:36.430Z,63.00
2019-02-25T03:04:40.836Z,63.00
2019-02-25T03:07:45.217Z,63.00
2019-02-25T03:10:49.615Z,63.00
2019-02-25T03:13:54.025Z,63.00
2019-02-25T03:16:58.398Z,63.00
2019-02-25T03:20:02.804Z,62.00
2019-02-25T03:23:07.181Z,63.00
2019-02-25T03:26:11.582Z,63.00
2019-02-25T03:29:04.915Z,63.00
2019-02-25T03:32:09.297Z,63.00
2019-02-25T03:35:13.700Z,63.00
2019-02-25T03:38:18.088Z,63.00
2019-02-25T03:41:22.488Z,63.00
2019-02-25T03:44:26.895Z,63.00
2019-02-25T03:47:31.277Z,63.00
2019-02-25T03:50:35.692Z,63.00
2019-02-25T03:53:40.063Z,64.00
2019-02-25T03:56:44.464Z,63.00
2019-02-25T03:59:48.870Z,63.00
2019-02-25T04:02:53.251Z,63.00
2019-02-25T04:05:57.652Z,63.00
2019-02-25T04:08:51.970Z,63.00
2019-02-25T04:11:56.373Z,63.00
2019-02-25T04:15:00.776Z,63.00
2019-02-25T04:18:05.154Z,63.00
2019-02-25T04:21:09.559Z,63.00
2019-02-25T04:24:13.938Z,63.00
2019-02-25T04:27:18.347Z,63.00
2019-02-25T04:30:22.750Z,63.00
2019-02-25T04:33:27.128Z,63.00
2019-02-25T04:36:31.531Z,63.00
2019-02-25T04:39:24.839Z,63.00
2019-02-25T04:42:29.245Z,63.00
2019-02-25T04:45:33.650Z,63.00
2019-02-25T04:48:38.030Z,63.00
2019-02-25T04:51:42.434Z,63.00
2019-02-25T04:54:46.809Z,63.00
2019-02-25T04:57:51.220Z,63.00
2019-02-25T05:00:55.600Z,63.00
2019-02-25T05:04:00.001Z,63.00
2019-02-25T05:07:04.395Z,62.00
2019-02-25T05:10:08.773Z,63.00
2019-02-25T05:13:13.210Z,63.00
2019-02-25T05:16:17.637Z,63.00
2019-02-25T05:19:10.961Z,63.00
2019-02-25T05:22:15.376Z,63.00
2019-02-25T05:25:19.756Z,63.00
2019-02-25T05:28:24.177Z,63.00
2019-02-25T05:31:28.565Z,63.00
2019-02-25T05:34:33.993Z,63.00
2019-02-25T05:37:38.414Z,63.00
2019-02-25T05:40:42.814Z,63.00
2019-02-25T05:43:47.227Z,63.00
2019-02-25T05:46:51.615Z,63.00
2019-02-25T05:49:56.023Z,63.00
2019-02-25T05:53:00.440Z,63.00
2019-02-25T05:56:04.826Z,63.00
2019-02-25T05:58:58.175Z,63.00
2019-02-25T06:02:02.566Z,63.00
2019-02-25T06:05:06.983Z,63.00
2019-02-25T06:08:11.419Z,63.00
2019-02-25T06:11:15.805Z,63.00
2019-02-25T06:14:20.222Z,63.00
2019-02-25T06:17:24.656Z,63.00
2019-02-25T06:20:29.022Z,63.00
2019-02-25T06:23:33.446Z,63.00
2019-02-25T06:26:38.712Z,63.00
2019-02-25T06:29:42.275Z,63.00
2019-02-25T06:32:46.652Z,63.00
2019-02-25T06:35:51.051Z,63.00
2019-02-25T06:38:44.385Z,63.00
2019-02-25T06:41:48.774Z,64.00
2019-02-25T06:44:53.169Z,63.00
2019-02-25T06:47:57.550Z,62.00
2019-02-25T06:51:01.945Z,62.00
2019-02-25T06:54:06.355Z,62.00
2019-02-25T06:57:10.733Z,61.00
2019-02-25T07:00:15.133Z,60.00
2019-02-25T07:03:19.518Z,61.00
2019-02-25T07:06:23.915Z,65.00
2019-02-25T07:09:17.259Z,60.00
2019-02-25T07:12:21.642Z,60.00
2019-02-25T07:15:26.067Z,60.00
2019-02-25T07:18:30.455Z,60.00
2019-02-25T07:21:34.881Z,60.00
2019-02-25T07:24:39.314Z,59.00
2019-02-25T07:27:43.707Z,60.00
2019-02-25T07:30:48.141Z,59.00
2019-02-25T07:33:52.539Z,60.00
2019-02-25T07:36:56.983Z,59.00
2019-02-25T07:40:01.406Z,60.00
2019-02-25T07:43:05.805Z,59.00
2019-02-25T07:46:10.233Z,59.00
2019-02-25T07:49:03.567Z,60.00
2019-02-25T07:52:08.008Z,67.00
2019-02-25T07:55:12.446Z,59.00
2019-02-25T07:58:16.860Z,59.00
2019-02-25T08:01:21.295Z,60.00
2019-02-25T08:04:25.709Z,60.00
2019-02-25T08:07:30.155Z,58.00
2019-02-25T08:10:34.611Z,58.00
2019-02-25T08:13:39.027Z,58.00
2019-02-25T08:16:43.469Z,58.00
2019-02-25T08:19:47.887Z,60.00
2019-02-25T08:22:52.334Z,61.00
2019-02-25T08:25:56.824Z,59.00
2019-02-25T08:28:50.179Z,60.00
2019-02-25T08:31:54.631Z,60.00
2019-02-25T08:34:59.062Z,59.00
2019-02-25T08:38:03.527Z,59.00
2019-02-25T08:41:07.943Z,60.00
2019-02-25T08:44:12.395Z,60.00
2019-02-25T08:47:16.826Z,58.00
2019-02-25T08:50:21.249Z,59.00
2019-02-25T08:53:25.696Z,58.00
2019-02-25T08:56:30.124Z,59.00
2019-02-25T08:59:23.507Z,60.00
2019-02-25T09:02:27.948Z,60.00
2019-02-25T09:05:32.373Z,60.00
2019-02-25T09:08:36.826Z,59.00
2019-02-25T09:11:41.255Z,59.00
2019-02-25T09:14:45.702Z,59.00
2019-02-25T09:17:50.148Z,58.00
2019-02-25T09:20:54.591Z,58.00
2019-02-25T09:23:59.045Z,60.00
2019-02-25T09:27:03.472Z,59.00
2019-02-25T09:30:07.929Z,60.00
2019-02-25T09:33:12.381Z,60.00
2019-02-25T09:36:16.809Z,60.00
2019-02-25T09:39:10.195Z,59.00
2019-02-25T09:42:14.625Z,60.00
2019-02-25T09:45:19.087Z,59.00
2019-02-25T09:48:23.552Z,60.00
2019-02-25T09:51:27.991Z,60.00
2019-02-25T09:54:32.447Z,60.00
2019-02-25T09:57:36.888Z,58.00
2019-02-25T10:00:41.352Z,60.00
2019-02-25T10:03:45.821Z,59.00
2019-02-25T10:06:50.264Z,59.00
2019-02-25T10:09:54.732Z,61.00
2019-02-25T10:12:59.199Z,60.00
2019-02-25T10:16:03.640Z,60.00
2019-02-25T10:18:57.033Z,60.00
2019-02-25T10:22:01.476Z,58.00
2019-02-25T10:25:05.944Z,58.00
2019-02-25T10:28:10.389Z,59.00
2019-02-25T10:31:15.368Z,60.00
2019-02-25T10:34:19.326Z,59.00
2019-02-25T10:37:23.773Z,58.00
2019-02-25T10:40:28.242Z,59.00
2019-02-25T10:43:34.553Z,59.00
2019-02-25T10:46:39.029Z,59.00
2019-02-25T10:49:41.625Z,61.00
2019-02-25T10:52:47.644Z,58.00
2019-02-25T10:55:50.872Z,58.00
2019-02-25T10:58:43.920Z,59.00
2019-02-25T11:01:48.391Z,60.00
2019-02-25T11:04:53.572Z,58.00
2019-02-25T11:07:57.310Z,60.00
2019-02-25T11:11:01.779Z,60.00
2019-02-25T11:14:07.257Z,59.00
2019-02-25T11:17:10.701Z,59.00
2019-02-25T11:20:15.175Z,60.00
2019-02-25T11:23:21.525Z,58.00
2019-02-25T11:26:26.119Z,58.00
2019-02-25T11:29:17.490Z,60.00
2019-02-25T11:32:23.784Z,60.00
2019-02-25T11:35:26.414Z,63.00
2019-02-25T11:38:34.290Z,61.00
2019-02-25T11:41:37.121Z,61.00
2019-02-25T11:44:39.809Z,60.00
2019-02-25T11:47:44.260Z,59.00
2019-02-25T11:50:48.727Z,58.00
2019-02-25T11:53:53.185Z,58.00
2019-02-25T11:56:57.659Z,60.00
2019-02-25T12:00:02.132Z,60.00
2019-02-25T12:03:06.586Z,58.00
2019-02-25T12:06:11.047Z,58.00
2019-02-25T12:09:04.442Z,58.00
2019-02-25T12:12:08.911Z,60.00
2019-02-25T12:15:13.388Z,58.00
2019-02-25T12:18:17.839Z,58.00
2019-02-25T12:21:22.307Z,61.00
2019-02-25T12:24:26.756Z,64.00
2019-02-25T12:27:31.229Z,60.00
2019-02-25T12:30:35.697Z,58.00
2019-02-25T12:33:40.145Z,58.00
2019-02-25T12:36:44.628Z,66.00
2019-02-25T12:39:49.076Z,58.00
2019-02-25T12:42:53.547Z,59.00
2019-02-25T12:45:58.014Z,58.00
2019-02-25T12:48:51.397Z,59.00
2019-02-25T12:51:55.856Z,59.00
2019-02-25T12:55:00.344Z,59.00
2019-02-25T12:58:04.761Z,60.00
2019-02-25T13:01:09.227Z,59.00
2019-02-25T13:04:13.671Z,58.00
2019-02-25T13:07:18.141Z,60.00
2019-02-25T13:10:22.589Z,59.00
2019-02-25T13:13:27.055Z,58.00
2019-02-25T13:16:31.521Z,58.00
2019-02-25T13:19:24.898Z,69.00
2019-02-25T13:22:29.365Z,58.00
2019-02-25T13:25:33.809Z,59.00
2019-02-25T13:28:38.279Z,60.00
2019-02-25T13:31:42.747Z,59.00
2019-02-25T13:34:47.216Z,59.00
2019-02-25T13:37:51.691Z,58.00
2019-02-25T13:40:56.140Z,59.00
2019-02-25T13:44:00.633Z,58.00
2019-02-25T13:47:05.107Z,58.00
2019-02-25T13:50:10.573Z,65.00
2019-02-25T13:53:15.088Z,58.00
2019-02-25T13:56:19.585Z,61.00
2019-02-25T13:59:13.062Z,58.00
2019-02-25T14:02:17.677Z,58.00
2019-02-25T14:05:22.171Z,60.00
2019-02-25T14:08:26.664Z,60.00
2019-02-25T14:11:31.103Z,59.00
2019-02-25T14:14:35.675Z,58.00
2019-02-25T14:17:40.208Z,64.00
2019-02-25T14:20:44.691Z,66.00
2019-02-25T14:23:49.195Z,64.00
2019-02-25T14:26:54.541Z,58.00
2019-02-25T14:29:58.100Z,59.00
2019-02-25T14:33:02.647Z,58.00
2019-02-25T14:36:07.126Z,61.00
2019-02-25T14:39:02.246Z,60.00
2019-02-25T14:42:06.788Z,60.00
2019-02-25T14:45:09.675Z,62.00
2019-02-25T14:48:18.159Z,59.00
2019-02-25T14:51:18.615Z,58.00
2019-02-25T14:54:24.510Z,60.00
2019-02-25T14:57:28.832Z,59.00
2019-02-25T15:00:35.017Z,61.00
2019-02-25T15:03:36.509Z,60.00
2019-02-25T15:06:40.992Z,59.00
2019-02-25T15:09:45.795Z,59.00
2019-02-25T15:12:53.925Z,59.00
2019-02-25T15:15:54.534Z,58.00
2019-02-25T15:18:47.968Z,58.00
2019-02-25T15:21:54.200Z,66.00
2019-02-25T15:24:57.101Z,62.00
2019-02-25T15:28:01.386Z,62.00
2019-02-25T15:31:06.958Z,60.00
2019-02-25T15:34:10.980Z,60.00
2019-02-25T15:37:14.745Z,60.00
2019-02-25T15:40:21.025Z,62.00
2019-02-25T15:43:25.451Z,65.00
2019-02-25T15:46:28.874Z,64.00
2019-02-25T15:49:22.290Z,62.00
2019-02-25T15:52:27.567Z,60.00
2019-02-25T15:55:30.357Z,61.00
2019-02-25T15:58:34.786Z,60.00
2019-02-25T16:01:39.241Z,60.00
2019-02-25T16:04:43.700Z,60.00
2019-02-25T16:07:49.735Z,60.00
2019-02-25T16:10:53.396Z,61.00
2019-02-25T16:13:57.968Z,60.00
2019-02-25T16:17:01.436Z,60.00
2019-02-25T16:20:06.743Z,61.00
2019-02-25T16:23:10.337Z,64.00
2019-02-25T16:26:16.045Z,67.00
2019-02-25T16:29:09.104Z,60.00
2019-02-25T16:32:12.534Z,58.00
2019-02-25T16:35:17.271Z,58.00
2019-02-25T16:38:24.849Z,65.00
2019-02-25T16:41:29.922Z,58.00
2019-02-25T16:44:30.539Z,59.00
2019-02-25T16:47:37.539Z,62.00
2019-02-25T16:50:41.545Z,59.00
2019-02-25T16:53:45.349Z,66.00
2019-02-25T16:56:48.244Z,59.00
2019-02-25T16:59:53.750Z,60.00
2019-02-25T17:02:59.304Z,58.00
2019-02-25T17:06:02.432Z,58.00
2019-02-25T17:08:55.685Z,58.00
2019-02-25T17:12:00.101Z,60.00
2019-02-25T17:15:03.672Z,60.00
2019-02-25T17:18:08.102Z,60.00
2019-02-25T17:21:12.515Z,63.00
2019-02-25T17:24:16.920Z,60.00
2019-02-25T17:27:21.341Z,60.00
2019-02-25T17:30:25.743Z,59.00
2019-02-25T17:33:30.927Z,60.00
2019-02-25T17:36:34.587Z,59.00
2019-02-25T17:39:29.484Z,59.00
2019-02-25T17:42:33.589Z,62.00
2019-02-25T17:45:38.576Z,59.00
2019-02-25T17:48:41.149Z,61.00
2019-02-25T17:51:45.587Z,59.00
2019-02-25T17:54:49.972Z,64.00
2019-02-25T17:57:56.366Z,59.00
2019-02-25T18:01:00.629Z,59.00
2019-02-25T18:04:04.487Z,59.00
2019-02-25T18:07:07.654Z,59.00
2019-02-25T18:10:12.048Z,58.00
2019-02-25T18:13:16.507Z,58.00
2019-02-25T18:16:20.901Z,59.00
2019-02-25T18:19:15.816Z,58.00
2019-02-25T18:22:18.663Z,59.00
2019-02-25T18:25:23.053Z,59.00
2019-02-25T18:28:27.459Z,61.00
2019-02-25T18:31:31.883Z,59.00
2019-02-25T18:34:37.062Z,59.00
2019-02-25T18:37:41.852Z,60.00
2019-02-25T18:40:46.226Z,59.00
2019-02-25T18:43:51.322Z,59.00
2019-02-25T18:46:54.227Z,59.00
2019-02-25T18:49:59.275Z,60.00
2019-02-25T18:53:03.110Z,59.00
2019-02-25T18:56:09.601Z,59.00
2019-02-25T18:59:08.782Z,59.00
2019-02-25T19:02:05.792Z,59.00
2019-02-25T19:05:13.674Z,61.00
2019-02-25T19:08:14.914Z,59.00
2019-02-25T19:11:19.055Z,59.00
2019-02-25T19:14:24.117Z,58.00
2019-02-25T19:17:28.118Z,59.00
2019-02-25T19:20:31.867Z,58.00
2019-02-25T19:23:37.748Z,58.00
2019-02-25T19:26:42.399Z,59.00
2019-02-25T19:29:45.553Z,59.00
2019-02-25T19:32:49.488Z,58.00
2019-02-25T19:35:54.476Z,59.00
2019-02-25T19:38:48.619Z,58.00
2019-02-25T19:41:53.470Z,58.00
2019-02-25T19:44:56.890Z,59.00
2019-02-25T19:48:02.284Z,59.00
2019-02-25T19:51:06.230Z,58.00
2019-02-25T19:54:09.857Z,59.00
2019-02-25T19:57:14.044Z,59.00
2019-02-25T20:00:22.047Z,59.00
2019-02-25T20:03:22.435Z,59.00
2019-02-25T20:06:28.047Z,59.00
2019-02-25T20:09:20.173Z,59.00
2019-02-25T20:12:24.565Z,59.00
2019-02-25T20:15:28.977Z,59.00
2019-02-25T20:18:35.430Z,59.00
2019-02-25T20:21:37.770Z,58.00
2019-02-25T20:24:44.555Z,58.00
2019-02-25T20:27:46.591Z,59.00
2019-02-25T20:30:51.647Z,59.00
2019-02-25T20:33:57.267Z,59.00
2019-02-25T20:37:01.583Z,59.00
2019-02-25T20:40:04.177Z,59.00
2019-02-25T20:43:08.583Z,59.00
2019-02-25T20:46:12.993Z,59.00
2019-02-25T20:49:06.305Z,59.00
2019-02-25T20:52:11.762Z,59.00
2019-02-25T20:55:15.122Z,59.00
2019-02-25T20:58:20.891Z,59.00
2019-02-25T21:01:23.911Z,59.00
2019-02-25T21:04:28.295Z,59.00
2019-02-25T21:07:34.355Z,59.00
2019-02-25T21:10:37.121Z,59.00
2019-02-25T21:13:41.498Z,59.00
2019-02-25T21:16:45.901Z,59.00
2019-02-25T21:19:50.286Z,59.00
2019-02-25T21:22:57.438Z,59.00
2019-02-25T21:26:00.212Z,59.00
2019-02-25T21:28:56.047Z,59.00
2019-02-25T21:31:58.769Z,60.00
2019-02-25T21:35:02.650Z,59.00
2019-02-25T21:38:05.600Z,59.00
2019-02-25T21:41:11.084Z,59.00
2019-02-25T21:44:17.005Z,58.00
2019-02-25T21:47:20.373Z,59.00
2019-02-25T21:50:26.330Z,59.00
2019-02-25T21:53:27.578Z,59.00
2019-02-25T21:56:31.977Z,59.00
2019-02-25T21:59:25.282Z,59.00
2019-02-25T22:02:29.677Z,59.00
2019-02-25T22:05:34.063Z,59.00
2019-02-25T22:08:38.460Z,59.00
2019-02-25T22:11:42.864Z,59.00
2019-02-25T22:14:47.795Z,59.00
2019-02-25T22:17:53.418Z,58.00
2019-02-25T22:20:56.030Z,58.00
2019-02-25T22:24:03.131Z,59.00
2019-02-25T22:27:04.842Z,59.00
2019-02-25T22:30:09.300Z,59.00
2019-02-25T22:33:25.090Z,58.00
2019-02-25T22:36:18.000Z,59.00
2019-02-25T22:39:11.330Z,59.00
2019-02-25T22:42:15.739Z,59.00
2019-02-25T22:45:20.117Z,60.00
2019-02-25T22:48:24.527Z,60.00
2019-02-25T22:51:30.774Z,60.00
2019-02-25T22:54:37.062Z,60.00
2019-02-25T22:57:37.736Z,60.00
2019-02-25T23:00:42.174Z,60.00
2019-02-25T23:03:47.935Z,60.00
2019-02-25T23:06:51.340Z,60.00
2019-02-25T23:09:55.319Z,60.00
2019-02-25T23:12:59.702Z,60.00
2019-02-25T23:16:04.114Z,60.00
2019-02-25T23:18:57.449Z,60.00
2019-02-25T23:22:01.833Z,60.00
2019-02-25T23:25:06.245Z,60.00
2019-02-25T23:28:10.624Z,60.00
2019-02-25T23:31:15.105Z,60.00
2019-02-25T23:34:20.451Z,60.00
2019-02-25T23:37:25.697Z,60.00
2019-02-25T23:40:31.241Z,60.00
2019-02-25T23:43:36.029Z,60.00
2019-02-25T23:46:37.868Z,60.00
2019-02-25T23:49:30.357Z,60.00
2019-02-25T23:52:35.831Z,60.00
2019-02-25T23:55:39.152Z,60.00
2019-02-25T23:58:44.976Z,60.00
